sensor_id;sensor_type;location;lat;lon;timestamp;pressure;altitude;pressure_sealevel;temperature;humidity
6528;BME280;64597;42.664;23.256;2023-02-22T00:00:38;94535.94;;;11.33;38.35
6528;BME280;64597;42.664;23.256;2023-02-22T00:03:28;94534.66;;;11.19;38.38
6528;BME280;64597;42.664;23.256;2023-02-22T00:06:06;94540.03;;;11.08;38.34
6528;BME280;64597;42.664;23.256;2023-02-22T00:08:39;94539.44;;;11.06;38.80
6528;BME280;64597;42.664;23.256;2023-02-22T00:11:07;94546.88;;;11.09;38.62
6528;BME280;64597;42.664;23.256;2023-02-22T00:13:32;94491.91;;;10.72;38.57
6528;BME280;64597;42.664;23.256;2023-02-22T00:15:59;94549.84;;;11.12;38.19
6528;BME280;64597;42.664;23.256;2023-02-22T00:18:26;94553.78;;;11.10;38.64
6528;BME280;64597;42.664;23.256;2023-02-22T00:20:53;94545.75;;;11.05;38.21
6528;BME280;64597;42.664;23.256;2023-02-22T00:23:21;94543.94;;;11.05;38.34
6528;BME280;64597;42.664;23.256;2023-02-22T00:25:49;94531.94;;;10.98;38.57
6528;BME280;64597;42.664;23.256;2023-02-22T00:28:18;94545.34;;;10.96;38.76
6528;BME280;64597;42.664;23.256;2023-02-22T00:30:44;94546.53;;;10.89;38.72
6528;BME280;64597;42.664;23.256;2023-02-22T00:33:11;94549.28;;;10.82;39.00
6528;BME280;64597;42.664;23.256;2023-02-22T00:35:37;94534.09;;;10.72;39.72
6528;BME280;64597;42.664;23.256;2023-02-22T00:38:03;94545.00;;;10.64;39.92
6528;BME280;64597;42.664;23.256;2023-02-22T00:40:31;94536.56;;;10.51;40.12
6528;BME280;64597;42.664;23.256;2023-02-22T00:42:59;94530.53;;;10.39;40.03
6528;BME280;64597;42.664;23.256;2023-02-22T00:45:27;94531.94;;;10.30;40.49
6528;BME280;64597;42.664;23.256;2023-02-22T00:47:53;94538.91;;;10.24;40.65
6528;BME280;64597;42.664;23.256;2023-02-22T00:50:20;94533.19;;;10.04;41.57
6528;BME280;64597;42.664;23.256;2023-02-22T00:52:46;94533.13;;;9.99;41.37
6528;BME280;64597;42.664;23.256;2023-02-22T00:55:18;94515.47;;;9.88;41.67
6528;BME280;64597;42.664;23.256;2023-02-22T00:57:43;94518.94;;;9.77;41.50
6528;BME280;64597;42.664;23.256;2023-02-22T01:00:15;94519.50;;;9.67;41.78
6528;BME280;64597;42.664;23.256;2023-02-22T01:02:41;94516.66;;;9.69;41.83
6528;BME280;64597;42.664;23.256;2023-02-22T01:05:09;94510.91;;;9.72;42.23
6528;BME280;64597;42.664;23.256;2023-02-22T01:07:39;94518.56;;;9.73;41.07
6528;BME280;64597;42.664;23.256;2023-02-22T01:10:06;94516.66;;;9.69;41.79
6528;BME280;64597;42.664;23.256;2023-02-22T01:12:33;94518.72;;;9.67;41.55
6528;BME280;64597;42.664;23.256;2023-02-22T01:14:58;94513.19;;;9.57;42.12
6528;BME280;64597;42.664;23.256;2023-02-22T01:17:24;94513.19;;;9.57;42.07
6528;BME280;64597;42.664;23.256;2023-02-22T01:19:51;94504.28;;;9.58;42.32
6528;BME280;64597;42.664;23.256;2023-02-22T01:22:17;94518.47;;;9.57;41.92
6528;BME280;64597;42.664;23.256;2023-02-22T01:24:43;94504.28;;;9.58;41.46
6528;BME280;64597;42.664;23.256;2023-02-22T01:27:08;94502.00;;;9.61;42.14
6528;BME280;64597;42.664;23.256;2023-02-22T01:29:35;94480.38;;;9.48;41.54
6528;BME280;64597;42.664;23.256;2023-02-22T01:32:00;94498.91;;;9.53;41.55
6528;BME280;64597;42.664;23.256;2023-02-22T01:34:26;94496.16;;;9.48;42.14
6528;BME280;64597;42.664;23.256;2023-02-22T01:36:51;94490.91;;;9.48;41.88
6528;BME280;64597;42.664;23.256;2023-02-22T01:39:17;94476.38;;;9.34;42.15
6528;BME280;64597;42.664;23.256;2023-02-22T01:41:45;94494.56;;;9.35;42.24
6528;BME280;64597;42.664;23.256;2023-02-22T01:46:42;94495.69;;;9.39;42.80
6528;BME280;64597;42.664;23.256;2023-02-22T01:49:08;94502.22;;;9.37;42.82
6528;BME280;64597;42.664;23.256;2023-02-22T01:51:42;94507.38;;;9.32;42.57
6528;BME280;64597;42.664;23.256;2023-02-22T01:54:33;94492.13;;;9.10;42.37
6528;BME280;64597;42.664;23.256;2023-02-22T01:57:07;94479.56;;;9.12;42.58
6528;BME280;64597;42.664;23.256;2023-02-22T01:59:37;94501.97;;;9.27;43.31
6528;BME280;64597;42.664;23.256;2023-02-22T02:02:04;94502.44;;;9.24;42.37
6528;BME280;64597;42.664;23.256;2023-02-22T02:04:31;94504.72;;;9.20;43.26
6528;BME280;64597;42.664;23.256;2023-02-22T02:07:02;94506.44;;;9.14;42.99
6528;BME280;64597;42.664;23.256;2023-02-22T02:09:36;94499.78;;;9.12;43.35
6528;BME280;64597;42.664;23.256;2023-02-22T02:12:04;94500.50;;;9.07;43.29
6528;BME280;64597;42.664;23.256;2023-02-22T02:14:32;94494.66;;;9.05;43.38
6528;BME280;64597;42.664;23.256;2023-02-22T02:16:58;94491.88;;;9.00;43.17
6528;BME280;64597;42.664;23.256;2023-02-22T02:38:33;94503.94;;;8.78;43.60
6528;BME280;64597;42.664;23.256;2023-02-22T02:41:15;94512.19;;;8.82;43.66
6528;BME280;64597;42.664;23.256;2023-02-22T02:44:04;94523.63;;;8.87;43.74
6528;BME280;64597;42.664;23.256;2023-02-22T02:46:37;94501.06;;;8.68;43.83
6528;BME280;64597;42.664;23.256;2023-02-22T02:49:10;94518.25;;;8.82;43.88
6528;BME280;64597;42.664;23.256;2023-02-22T02:51:44;94527.16;;;8.81;44.29
6528;BME280;64597;42.664;23.256;2023-02-22T02:54:13;94528.81;;;8.64;44.58
6528;BME280;64597;42.664;23.256;2023-02-22T02:56:40;94534.50;;;8.61;45.03
6528;BME280;64597;42.664;23.256;2023-02-22T02:59:42;94543.06;;;8.57;45.07
6528;BME280;64597;42.664;23.256;2023-02-22T03:05:15;94534.03;;;8.35;45.55
6528;BME280;64597;42.664;23.256;2023-02-22T03:10:49;94537.41;;;8.23;46.03
6528;BME280;64597;42.664;23.256;2023-02-22T03:24:41;94512.59;;;7.83;46.81
6528;BME280;64597;42.664;23.256;2023-02-22T03:27:27;94541.69;;;8.00;47.22
6528;BME280;64597;42.664;23.256;2023-02-22T03:30:00;94545.34;;;7.99;47.17
6528;BME280;64597;42.664;23.256;2023-02-22T03:32:31;94541.09;;;7.80;47.79
6528;BME280;64597;42.664;23.256;2023-02-22T03:35:11;94537.91;;;7.78;47.54
6528;BME280;64597;42.664;23.256;2023-02-22T03:37:40;94545.63;;;7.73;48.11
6528;BME280;64597;42.664;23.256;2023-02-22T03:40:11;94544.59;;;7.74;47.67
6528;BME280;64597;42.664;23.256;2023-02-22T03:42:39;94541.38;;;7.72;47.84
6528;BME280;64597;42.664;23.256;2023-02-22T03:45:07;94540.97;;;7.75;47.79
6528;BME280;64597;42.664;23.256;2023-02-22T03:47:40;94538.34;;;7.75;47.76
6528;BME280;64597;42.664;23.256;2023-02-22T03:50:11;94535.28;;;7.78;47.64
6528;BME280;64597;42.664;23.256;2023-02-22T03:52:41;94512.22;;;7.62;47.73
6528;BME280;64597;42.664;23.256;2023-02-22T03:55:12;94533.38;;;7.85;47.84
6528;BME280;64597;42.664;23.256;2023-02-22T03:57:45;94545.47;;;7.86;47.65
6528;BME280;64597;42.664;23.256;2023-02-22T04:00:16;94535.34;;;7.89;47.69
6528;BME280;64597;42.664;23.256;2023-02-22T04:02:42;94537.31;;;7.94;47.07
6528;BME280;64597;42.664;23.256;2023-02-22T04:05:08;94534.47;;;7.95;47.41
6528;BME280;64597;42.664;23.256;2023-02-22T04:07:34;94535.03;;;7.97;47.49
6528;BME280;64597;42.664;23.256;2023-02-22T04:10:00;94530.84;;;7.96;47.80
6528;BME280;64597;42.664;23.256;2023-02-22T04:12:27;94525.81;;;7.95;47.55
6528;BME280;64597;42.664;23.256;2023-02-22T04:14:53;94530.59;;;7.98;47.73
6528;BME280;64597;42.664;23.256;2023-02-22T04:17:18;94536.50;;;7.93;47.70
6528;BME280;64597;42.664;23.256;2023-02-22T04:19:43;94531.66;;;7.97;47.70
6528;BME280;64597;42.664;23.256;2023-02-22T04:22:10;94523.97;;;7.95;47.96
6528;BME280;64597;42.664;23.256;2023-02-22T04:24:36;94529.44;;;7.94;47.94
6528;BME280;64597;42.664;23.256;2023-02-22T04:27:01;94529.91;;;7.91;47.65
6528;BME280;64597;42.664;23.256;2023-02-22T04:29:28;94536.97;;;7.90;48.00
6528;BME280;64597;42.664;23.256;2023-02-22T04:31:54;94546.22;;;7.93;48.02
6528;BME280;64597;42.664;23.256;2023-02-22T04:34:19;94530.84;;;7.96;47.97
6528;BME280;64597;42.664;23.256;2023-02-22T04:36:44;94535.63;;;7.99;47.71
6528;BME280;64597;42.664;23.256;2023-02-22T04:39:10;94532.22;;;7.99;47.92
6528;BME280;64597;42.664;23.256;2023-02-22T04:41:35;94539.06;;;8.00;47.75
6528;BME280;64597;42.664;23.256;2023-02-22T04:44:01;94541.25;;;8.03;47.86
6528;BME280;64597;42.664;23.256;2023-02-22T04:46:26;94538.06;;;8.01;48.25
6528;BME280;64597;42.664;23.256;2023-02-22T04:48:52;94533.22;;;7.98;48.27
6528;BME280;64597;42.664;23.256;2023-02-22T04:51:18;94536.50;;;7.93;48.06
6528;BME280;64597;42.664;23.256;2023-02-22T04:53:44;94533.75;;;7.88;48.72
6528;BME280;64597;42.664;23.256;2023-02-22T04:56:10;94525.28;;;7.86;48.78
6528;BME280;64597;42.664;23.256;2023-02-22T04:58:35;94527.03;;;7.74;49.12
6528;BME280;64597;42.664;23.256;2023-02-22T05:01:00;94531.47;;;7.74;48.94
6528;BME280;64597;42.664;23.256;2023-02-22T05:03:27;94529.88;;;7.73;49.09
6528;BME280;64597;42.664;23.256;2023-02-22T05:05:53;94522.22;;;7.71;49.20
6528;BME280;64597;42.664;23.256;2023-02-22T05:08:18;94542.84;;;7.68;49.22
6528;BME280;64597;42.664;23.256;2023-02-22T05:10:44;94532.84;;;7.58;49.40
6528;BME280;64597;42.664;23.256;2023-02-22T05:13:09;94529.63;;;7.56;49.41
6528;BME280;64597;42.664;23.256;2023-02-22T05:15:34;94548.50;;;7.65;49.51
6528;BME280;64597;42.664;23.256;2023-02-22T05:18:00;94544.34;;;7.57;49.81
6528;BME280;64597;42.664;23.256;2023-02-22T05:20:28;94549.38;;;7.59;49.51
6528;BME280;64597;42.664;23.256;2023-02-22T05:22:58;94538.75;;;7.54;49.44
6528;BME280;64597;42.664;23.256;2023-02-22T05:25:24;94554.63;;;7.59;49.52
6528;BME280;64597;42.664;23.256;2023-02-22T05:27:56;94564.16;;;7.53;49.68
6528;BME280;64597;42.664;23.256;2023-02-22T05:30:25;94569.69;;;7.45;49.51
6528;BME280;64597;42.664;23.256;2023-02-22T05:32:51;94554.84;;;7.32;49.27
6528;BME280;64597;42.664;23.256;2023-02-22T05:35:20;94559.88;;;7.34;49.67
6528;BME280;64597;42.664;23.256;2023-02-22T05:37:46;94567.38;;;7.30;49.63
6528;BME280;64597;42.664;23.256;2023-02-22T05:40:12;94578.63;;;7.37;49.27
6528;BME280;64597;42.664;23.256;2023-02-22T05:42:40;94578.19;;;7.40;49.50
6528;BME280;64597;42.664;23.256;2023-02-22T05:45:06;94583.44;;;7.40;50.01
6528;BME280;64597;42.664;23.256;2023-02-22T05:47:33;94588.66;;;7.40;49.51
6528;BME280;64597;42.664;23.256;2023-02-22T05:49:58;94587.66;;;7.41;50.06
6528;BME280;64597;42.664;23.256;2023-02-22T05:52:24;94585.03;;;7.41;50.05
6528;BME280;64597;42.664;23.256;2023-02-22T05:54:49;94591.09;;;7.42;49.93
6528;BME280;64597;42.664;23.256;2023-02-22T05:57:15;94595.91;;;7.45;50.16
6528;BME280;64597;42.664;23.256;2023-02-22T05:59:41;94573.78;;;7.34;50.08
6528;BME280;64597;42.664;23.256;2023-02-22T06:02:07;94591.03;;;7.48;50.05
6528;BME280;64597;42.664;23.256;2023-02-22T06:04:33;94592.19;;;7.53;50.10
6528;BME280;64597;42.664;23.256;2023-02-22T06:06:58;94598.84;;;7.55;49.91
6528;BME280;64597;42.664;23.256;2023-02-22T06:09:24;94592.09;;;7.66;49.92
6528;BME280;64597;42.664;23.256;2023-02-22T06:11:49;94600.47;;;7.81;49.83
6528;BME280;64597;42.664;23.256;2023-02-22T06:14:16;94599.81;;;8.03;49.61
6528;BME280;64597;42.664;23.256;2023-02-22T06:16:41;94594.75;;;8.26;48.57
6528;BME280;64597;42.664;23.256;2023-02-22T06:19:07;94604.81;;;8.66;47.77
6528;BME280;64597;42.664;23.256;2023-02-22T06:21:32;94603.47;;;9.04;46.32
6528;BME280;64597;42.664;23.256;2023-02-22T06:23:57;94598.72;;;9.25;45.74
6528;BME280;64597;42.664;23.256;2023-02-22T06:26:26;94594.78;;;9.45;44.62
6528;BME280;64597;42.664;23.256;2023-02-22T06:28:51;94596.06;;;9.66;44.68
6528;BME280;64597;42.664;23.256;2023-02-22T06:31:17;94563.22;;;9.80;43.73
6528;BME280;64597;42.664;23.256;2023-02-22T06:33:42;94587.72;;;10.27;43.01
6528;BME280;64597;42.664;23.256;2023-02-22T06:36:08;94588.34;;;10.57;43.35
6528;BME280;64597;42.664;23.256;2023-02-22T06:38:33;94579.41;;;10.98;41.74
6528;BME280;64597;42.664;23.256;2023-02-22T06:40:59;94578.34;;;11.43;41.09
6528;BME280;64597;42.664;23.256;2023-02-22T06:43:24;94573.53;;;11.85;39.99
6528;BME280;64597;42.664;23.256;2023-02-22T06:45:50;94568.09;;;12.52;39.50
6528;BME280;64597;42.664;23.256;2023-02-22T06:48:16;94563.50;;;12.90;37.93
6528;BME280;64597;42.664;23.256;2023-02-22T06:50:42;94544.53;;;13.20;37.79
6528;BME280;64597;42.664;23.256;2023-02-22T06:53:08;94558.94;;;13.97;36.63
6528;BME280;64597;42.664;23.256;2023-02-22T06:55:34;94555.00;;;14.42;35.99
6528;BME280;64597;42.664;23.256;2023-02-22T06:58:01;94559.19;;;14.95;35.02
6528;BME280;64597;42.664;23.256;2023-02-22T07:00:28;94562.72;;;15.20;34.30
6528;BME280;64597;42.664;23.256;2023-02-22T07:02:55;94562.28;;;15.53;33.05
6528;BME280;64597;42.664;23.256;2023-02-22T07:05:22;94568.94;;;15.71;31.59
6528;BME280;64597;42.664;23.256;2023-02-22T07:07:50;94567.06;;;15.87;31.46
6528;BME280;64597;42.664;23.256;2023-02-22T07:10:29;94559.91;;;15.92;30.82
6528;BME280;64597;42.664;23.256;2023-02-22T07:12:55;94563.31;;;16.23;30.82
6528;BME280;64597;42.664;23.256;2023-02-22T07:15:26;94564.25;;;16.77;30.37
6528;BME280;64597;42.664;23.256;2023-02-22T07:17:52;94561.97;;;17.14;29.42
6528;BME280;64597;42.664;23.256;2023-02-22T07:20:19;94551.94;;;17.40;28.66
6528;BME280;64597;42.664;23.256;2023-02-22T07:22:46;94542.66;;;17.76;28.43
6528;BME280;64597;42.664;23.256;2023-02-22T07:25:11;94569.31;;;18.67;54.91
6528;BME280;64597;42.664;23.256;2023-02-22T07:27:38;94557.38;;;20.32;48.57
6528;BME280;64597;42.664;23.256;2023-02-22T07:30:06;94553.41;;;21.52;41.21
6528;BME280;64597;42.664;23.256;2023-02-22T07:32:32;94546.22;;;22.50;34.27
6528;BME280;64597;42.664;23.256;2023-02-22T07:34:58;94549.22;;;22.48;25.20
6528;BME280;64597;42.664;23.256;2023-02-22T07:37:26;94545.31;;;22.01;23.24
6528;BME280;64597;42.664;23.256;2023-02-22T07:39:52;94551.66;;;21.70;23.83
6528;BME280;64597;42.664;23.256;2023-02-22T07:42:17;94557.44;;;21.63;23.65
6528;BME280;64597;42.664;23.256;2023-02-22T07:44:43;94540.84;;;21.61;23.22
6528;BME280;64597;42.664;23.256;2023-02-22T07:47:08;94549.38;;;21.63;23.59
6528;BME280;64597;42.664;23.256;2023-02-22T07:49:37;94532.13;;;21.56;23.59
6528;BME280;64597;42.664;23.256;2023-02-22T07:52:02;94523.16;;;21.60;23.09
6528;BME280;64597;42.664;23.256;2023-02-22T07:54:28;94542.72;;;21.96;22.94
6528;BME280;64597;42.664;23.256;2023-02-22T07:56:53;94530.19;;;22.05;22.41
6528;BME280;64597;42.664;23.256;2023-02-22T07:59:19;94535.16;;;21.98;22.74
6528;BME280;64597;42.664;23.256;2023-02-22T08:01:48;94532.59;;;22.16;23.17
6528;BME280;64597;42.664;23.256;2023-02-22T08:04:14;94527.03;;;22.43;22.12
6528;BME280;64597;42.664;23.256;2023-02-22T08:06:39;94531.19;;;22.49;22.49
6528;BME280;64597;42.664;23.256;2023-02-22T08:09:05;94523.25;;;22.66;21.64
6528;BME280;64597;42.664;23.256;2023-02-22T08:11:30;94529.00;;;22.81;22.33
6528;BME280;64597;42.664;23.256;2023-02-22T08:13:55;94531.91;;;23.02;21.79
6528;BME280;64597;42.664;23.256;2023-02-22T08:16:21;94529.91;;;23.25;21.67
6528;BME280;64597;42.664;23.256;2023-02-22T08:18:46;94526.47;;;23.41;21.90
6528;BME280;64597;42.664;23.256;2023-02-22T08:21:12;94521.13;;;23.58;21.58
6528;BME280;64597;42.664;23.256;2023-02-22T08:23:37;94521.59;;;23.77;20.82
6528;BME280;64597;42.664;23.256;2023-02-22T08:26:05;94529.19;;;23.58;21.01
6528;BME280;64597;42.664;23.256;2023-02-22T08:28:31;94520.00;;;23.59;21.07
6528;BME280;64597;42.664;23.256;2023-02-22T08:30:56;94527.63;;;23.74;21.39
6528;BME280;64597;42.664;23.256;2023-02-22T08:33:22;94526.03;;;23.99;20.94
6528;BME280;64597;42.664;23.256;2023-02-22T08:35:48;94520.00;;;24.19;21.37
6528;BME280;64597;42.664;23.256;2023-02-22T08:38:25;94518.38;;;24.27;20.54
6528;BME280;64597;42.664;23.256;2023-02-22T08:40:51;94513.59;;;24.41;20.46
6528;BME280;64597;42.664;23.256;2023-02-22T08:43:18;94516.84;;;24.64;20.17
6528;BME280;64597;42.664;23.256;2023-02-22T08:45:44;94521.28;;;24.77;20.00
6528;BME280;64597;42.664;23.256;2023-02-22T08:48:10;94518.06;;;24.92;20.03
6528;BME280;64597;42.664;23.256;2023-02-22T08:50:35;94508.03;;;24.92;20.15
6528;BME280;64597;42.664;23.256;2023-02-22T08:53:04;94512.03;;;25.15;19.64
6528;BME280;64597;42.664;23.256;2023-02-22T08:55:33;94518.16;;;25.04;19.75
6528;BME280;64597;42.664;23.256;2023-02-22T08:58:00;94509.47;;;25.19;20.11
6528;BME280;64597;42.664;23.256;2023-02-22T09:00:27;94517.06;;;25.25;19.59
6528;BME280;64597;42.664;23.256;2023-02-22T09:02:56;94518.41;;;25.40;19.82
6528;BME280;64597;42.664;23.256;2023-02-22T09:05:21;94502.25;;;25.61;19.61
6528;BME280;64597;42.664;23.256;2023-02-22T09:07:47;94515.75;;;25.81;19.32
6528;BME280;64597;42.664;23.256;2023-02-22T09:10:15;94513.16;;;25.85;19.18
6528;BME280;64597;42.664;23.256;2023-02-22T09:12:41;94509.03;;;25.67;19.65
6528;BME280;64597;42.664;23.256;2023-02-22T09:15:07;94502.19;;;25.69;19.39
6528;BME280;64597;42.664;23.256;2023-02-22T09:17:33;94508.69;;;25.89;19.49
6528;BME280;64597;42.664;23.256;2023-02-22T09:20:05;94507.56;;;25.90;19.50
6528;BME280;64597;42.664;23.256;2023-02-22T09:22:30;94487.19;;;25.92;19.65
6528;BME280;64597;42.664;23.256;2023-02-22T09:24:56;94502.19;;;26.10;18.92
6528;BME280;64597;42.664;23.256;2023-02-22T09:27:21;94492.31;;;26.06;18.95
6528;BME280;64597;42.664;23.256;2023-02-22T09:29:47;94504.53;;;26.12;18.94
6528;BME280;64597;42.664;23.256;2023-02-22T09:32:13;94504.00;;;25.98;19.24
6528;BME280;64597;42.664;23.256;2023-02-22T09:34:42;94503.78;;;26.03;18.92
6528;BME280;64597;42.664;23.256;2023-02-22T09:37:10;94490.94;;;26.00;19.14
6528;BME280;64597;42.664;23.256;2023-02-22T09:39:35;94501.53;;;26.05;18.84
6528;BME280;64597;42.664;23.256;2023-02-22T09:45:06;94501.84;;;26.12;18.74
6528;BME280;64597;42.664;23.256;2023-02-22T09:47:48;94498.34;;;25.91;19.24
6528;BME280;64597;42.664;23.256;2023-02-22T09:50:21;94489.81;;;26.01;19.40
6528;BME280;64597;42.664;23.256;2023-02-22T09:53:12;94489.56;;;26.15;19.26
6528;BME280;64597;42.664;23.256;2023-02-22T09:55:48;94492.19;;;26.02;18.61
6528;BME280;64597;42.664;23.256;2023-02-22T10:00:41;94458.50;;;25.67;19.55
6528;BME280;64597;42.664;23.256;2023-02-22T10:05:51;94472.81;;;26.00;18.97
6528;BME280;64597;42.664;23.256;2023-02-22T10:08:21;94473.31;;;25.82;19.40
6528;BME280;64597;42.664;23.256;2023-02-22T10:11:02;94473.56;;;25.89;19.35
6528;BME280;64597;42.664;23.256;2023-02-22T10:22:00;94443.38;;;25.87;19.46
6528;BME280;64597;42.664;23.256;2023-02-22T10:27:04;94435.31;;;25.99;32.71
6528;BME280;64597;42.664;23.256;2023-02-22T10:29:43;94434.56;;;26.55;31.51
6528;BME280;64597;42.664;23.256;2023-02-22T10:32:19;94429.97;;;26.80;26.51
6528;BME280;64597;42.664;23.256;2023-02-22T10:34:50;94431.19;;;26.82;26.83
6528;BME280;64597;42.664;23.256;2023-02-22T10:37:32;94417.66;;;27.07;26.00
6528;BME280;64597;42.664;23.256;2023-02-22T10:40:14;94407.72;;;27.11;25.50
6528;BME280;64597;42.664;23.256;2023-02-22T10:42:41;94410.59;;;27.30;25.29
6528;BME280;64597;42.664;23.256;2023-02-22T10:45:20;94409.28;;;27.12;17.89
6528;BME280;64597;42.664;23.256;2023-02-22T10:47:49;94409.09;;;26.80;17.88
6528;BME280;64597;42.664;23.256;2023-02-22T10:50:15;94388.13;;;26.65;18.43
6528;BME280;64597;42.664;23.256;2023-02-22T10:52:41;94410.91;;;26.76;18.11
6528;BME280;64597;42.664;23.256;2023-02-22T10:55:12;94391.03;;;26.48;18.70
6528;BME280;64597;42.664;23.256;2023-02-22T10:57:39;94390.25;;;26.36;18.46
6528;BME280;64597;42.664;23.256;2023-02-22T11:02:58;94387.00;;;25.85;19.01
6528;BME280;64597;42.664;23.256;2023-02-22T11:05:33;94392.97;;;26.03;18.56
6528;BME280;64597;42.664;23.256;2023-02-22T11:10:43;94384.38;;;26.09;18.96
6528;BME280;64597;42.664;23.256;2023-02-22T11:16:01;94372.50;;;26.02;18.56
6528;BME280;64597;42.664;23.256;2023-02-22T11:18:40;94375.69;;;25.71;19.16
6528;BME280;64597;42.664;23.256;2023-02-22T11:21:08;94368.53;;;25.55;19.46
6528;BME280;64597;42.664;23.256;2023-02-22T11:23:37;94367.44;;;25.68;19.24
6528;BME280;64597;42.664;23.256;2023-02-22T11:26:09;94356.91;;;25.75;19.35
6528;BME280;64597;42.664;23.256;2023-02-22T11:28:41;94354.22;;;25.87;19.08
6528;BME280;64597;42.664;23.256;2023-02-22T11:31:22;94360.97;;;25.81;18.75
6528;BME280;64597;42.664;23.256;2023-02-22T11:33:52;94356.88;;;25.63;18.53
6528;BME280;64597;42.664;23.256;2023-02-22T11:36:39;94356.31;;;25.37;19.23
6528;BME280;64597;42.664;23.256;2023-02-22T11:41:48;94361.81;;;25.40;18.91
6528;BME280;64597;42.664;23.256;2023-02-22T11:46:54;94348.00;;;25.21;19.49
6528;BME280;64597;42.664;23.256;2023-02-22T11:49:23;94329.88;;;24.89;19.42
6528;BME280;64597;42.664;23.256;2023-02-22T11:51:59;94344.72;;;24.74;19.50
6528;BME280;64597;42.664;23.256;2023-02-22T12:00:22;94335.34;;;24.51;19.60
6528;BME280;64597;42.664;23.256;2023-02-22T12:14:23;94317.66;;;24.33;19.30
6528;BME280;64597;42.664;23.256;2023-02-22T12:19:52;94305.63;;;23.93;19.09
6528;BME280;64597;42.664;23.256;2023-02-22T12:22:26;94309.94;;;23.94;19.66
6528;BME280;64597;42.664;23.256;2023-02-22T12:27:46;94311.84;;;23.85;19.53
6528;BME280;64597;42.664;23.256;2023-02-22T12:30:36;94302.03;;;23.80;19.36
6528;BME280;64597;42.664;23.256;2023-02-22T12:33:17;94280.47;;;23.51;19.62
6528;BME280;64597;42.664;23.256;2023-02-22T12:35:52;94307.25;;;23.30;20.37
6528;BME280;64597;42.664;23.256;2023-02-22T12:38:41;94311.50;;;23.23;20.85
6528;BME280;64597;42.664;23.256;2023-02-22T12:41:30;94299.47;;;23.29;20.56
6528;BME280;64597;42.664;23.256;2023-02-22T12:44:16;94302.81;;;23.17;20.54
6528;BME280;64597;42.664;23.256;2023-02-22T12:46:55;94296.50;;;23.13;20.81
6528;BME280;64597;42.664;23.256;2023-02-22T12:49:29;94302.03;;;23.08;20.53
6528;BME280;64597;42.664;23.256;2023-02-22T12:52:20;94294.91;;;23.12;20.86
6528;BME280;64597;42.664;23.256;2023-02-22T12:55:00;94297.44;;;23.17;20.81
6528;BME280;64597;42.664;23.256;2023-02-22T13:00:26;94286.19;;;23.15;21.20
6528;BME280;64597;42.664;23.256;2023-02-22T13:03:12;94292.84;;;23.18;21.20
6528;BME280;64597;42.664;23.256;2023-02-22T13:05:43;94283.22;;;22.91;21.15
6528;BME280;64597;42.664;23.256;2023-02-22T13:08:36;94279.13;;;22.85;21.35
6528;BME280;64597;42.664;23.256;2023-02-22T13:21:57;94253.75;;;24.13;30.24
6528;BME280;64597;42.664;23.256;2023-02-22T13:24:44;94271.75;;;24.50;28.81
6528;BME280;64597;42.664;23.256;2023-02-22T13:27:18;94270.88;;;24.58;26.93
6528;BME280;64597;42.664;23.256;2023-02-22T13:29:51;94278.03;;;24.33;20.48
6528;BME280;64597;42.664;23.256;2023-02-22T13:32:46;94272.91;;;23.73;20.31
6528;BME280;64597;42.664;23.256;2023-02-22T13:40:54;94273.56;;;22.81;21.14
6528;BME280;64597;42.664;23.256;2023-02-22T13:51:48;94268.28;;;22.17;21.94
6528;BME280;64597;42.664;23.256;2023-02-22T13:54:26;94273.50;;;22.13;22.26
6528;BME280;64597;42.664;23.256;2023-02-22T13:56:54;94252.44;;;21.98;22.35
6528;BME280;64597;42.664;23.256;2023-02-22T13:59:32;94271.44;;;22.01;22.20
6528;BME280;64597;42.664;23.256;2023-02-22T14:02:00;94262.88;;;21.99;22.29
6528;BME280;64597;42.664;23.256;2023-02-22T14:06:55;94266.38;;;21.61;22.72
6528;BME280;64597;42.664;23.256;2023-02-22T14:09:49;94269.44;;;21.46;23.10
6528;BME280;64597;42.664;23.256;2023-02-22T14:17:34;94270.94;;;21.29;23.66
6528;BME280;64597;42.664;23.256;2023-02-22T14:22:46;94272.88;;;21.07;23.69
6528;BME280;64597;42.664;23.256;2023-02-22T14:25:31;94267.72;;;20.97;24.15
6528;BME280;64597;42.664;23.256;2023-02-22T14:27:58;94257.25;;;20.87;24.33
6528;BME280;64597;42.664;23.256;2023-02-22T14:30:37;94266.13;;;20.74;24.50
6528;BME280;64597;42.664;23.256;2023-02-22T14:36:07;94266.13;;;20.51;25.28
6528;BME280;64597;42.664;23.256;2023-02-22T14:38:32;94269.69;;;20.61;25.21
6528;BME280;64597;42.664;23.256;2023-02-22T14:41:00;94263.31;;;20.57;24.97
6528;BME280;64597;42.664;23.256;2023-02-22T14:43:28;94269.34;;;20.40;25.72
6528;BME280;64597;42.664;23.256;2023-02-22T14:45:56;94250.53;;;20.31;25.83
6528;BME280;64597;42.664;23.256;2023-02-22T14:53:47;94264.69;;;20.18;26.33
6528;BME280;64597;42.664;23.256;2023-02-22T14:56:24;94266.38;;;20.14;26.43
6528;BME280;64597;42.664;23.256;2023-02-22T14:58:54;94267.91;;;20.07;26.31
6528;BME280;64597;42.664;23.256;2023-02-22T15:01:34;94267.41;;;19.91;26.58
6528;BME280;64597;42.664;23.256;2023-02-22T15:04:26;94260.47;;;19.90;26.77
6528;BME280;64597;42.664;23.256;2023-02-22T15:06:57;94264.44;;;19.79;27.02
6528;BME280;64597;42.664;23.256;2023-02-22T15:09:25;94266.34;;;19.79;27.07
6528;BME280;64597;42.664;23.256;2023-02-22T15:14:20;94269.00;;;19.65;27.12
6528;BME280;64597;42.664;23.256;2023-02-22T15:16:49;94273.97;;;19.58;27.58
6528;BME280;64597;42.664;23.256;2023-02-22T15:19:26;94258.13;;;19.48;27.72
6528;BME280;64597;42.664;23.256;2023-02-22T15:21:53;94265.66;;;19.46;27.98
6528;BME280;64597;42.664;23.256;2023-02-22T15:24:27;94270.59;;;19.39;27.92
6528;BME280;64597;42.664;23.256;2023-02-22T15:26:54;94274.34;;;19.38;27.93
6528;BME280;64597;42.664;23.256;2023-02-22T15:29:23;94269.28;;;19.36;28.07
6528;BME280;64597;42.664;23.256;2023-02-22T15:31:50;94276.97;;;19.24;28.22
6528;BME280;64597;42.664;23.256;2023-02-22T15:34:25;94277.34;;;19.18;28.34
6528;BME280;64597;42.664;23.256;2023-02-22T15:36:53;94274.66;;;19.18;28.56
6528;BME280;64597;42.664;23.256;2023-02-22T15:39:28;94277.63;;;19.16;28.37
6528;BME280;64597;42.664;23.256;2023-02-22T15:42:07;94282.59;;;19.09;28.87